Tiempo atmosférico en la estación meteorológica de Priego de Cordoba, Córdoba (520 m.)



Fecha
DESCASC
Temp. máxima en grados centígrados (hora)
DESCASC
Temp. mínima en grados centígrados (hora)
DESCASC
Temp. media en grados centígrados
DESCASC
Racha de viento máxima en m/sg (hora)
DESCASC
Velocidad máxima media en intervalos de 10 minutos(hora)
DESCASC
Precipitaciones diarias en mm
DESCASC
Precipitaciones de 00:00 a 06:00 en mm
DESCASC
Precipitaciones de 06:00 a 12:00 en mm
DESCASC
Precipitaciones de 12:00 a 18:00 en mm
DESCASC
Precipitaciones de 18:00 a 24:00 en mm
DESCASC
20-09-2020 26.5 (16:20) 10.9 (07:50) 18.7 8.33 (15:40) 5.28 (16:20) 0.2 0.2 0 0 0
19-09-2020 23.7 (13:40) 16 (07:50) 19.9 12.78 (15:30) 8.61 (15:30) 0.4 0 0 0.2 0.2
18-09-2020 25.2 (17:30) 19.3 (09:10) 22.3 18.89 (15:10) 12.78 (14:10) 0.2 0 0.2 0 0
17-09-2020 29.7 (15:40) 21.4 (00:00) 25.6 19.17 (19:50) 12.5 (19:50) 0 0 0 0 0
16-09-2020 31.8 (15:40) 15.5 (00:00) 23.6 10 (18:40) 7.22 (18:40) 0 0 0 0 0
15-09-2020 31.2 (17:50) 17.3 (00:00) 24.3 8.89 (18:20) 5.28 (16:10) 0 0 0 0 0
14-09-2020 31.4 (18:30) 20.7 (00:00) 26.1 9.72 (14:10) 6.11 (14:10) 0 0 0 0 0
13-09-2020 34.6 (17:10) 21.1 (00:00) 27.8 7.78 (06:00) 4.72 (14:10) 0 0 0 0 0
12-09-2020 35.6 (17:20) 16.1 (00:00) 25.8 9.17 (15:00) 5.28 (15:00) 0 0 0 0 0
11-09-2020 32.7 (17:00) 15.8 (00:00) 24.3 8.06 (14:00) 5 (14:10) 0 0 0 0 0
10-09-2020 31.6 (17:20) 16.2 (00:00) 23.9 8.61 (14:40) 5 (03:10) 0 0 0 0 0
09-09-2020 29.7 (18:20) 15.6 (00:00) 22.7 7.5 (15:00) 4.44 (14:40) 0 0 0 0 0
08-09-2020 29.9 (17:00) 17.6 (00:00) 23.8 9.17 (18:50) 6.94 (19:50) 0 0 0 0 0
07-09-2020 33.3 (17:40) 18 (08:30) 25.6 9.17 (15:40) 6.39 (01:10) 0 0 0 0 0
06-09-2020 33.1 (16:10) 17.1 (00:00) 25.1 8.33 (16:10) 6.11 (22:50) 0 0 0 0 0
05-09-2020 32.9 (15:50) 15.4 (00:00) 24.2 8.33 (18:10) 4.72 (18:30) 0 0 0 0 0
04-09-2020 33.4 (16:50) 16.6 (00:00) 25 9.72 (14:50) 6.94 (19:30) 0 0 0 0 0
03-09-2020 33.2 (18:10) 14.6 (00:00) 23.9 10 (19:40) 6.67 (19:40) 0 0 0 0 0
02-09-2020 31.5 (17:30) 13.3 (00:00) 22.4 12.78 (20:10) 7.22 (20:10) 0 0 0 0 0
01-09-2020 29.4 (17:40) 13.8 (00:00) 21.6 8.89 (16:10) 5.28 (16:00) 0 0 0 0 0
31-08-2020 31.6 (17:30) 12.2 (00:00) 21.9 8.89 (20:10) 6.39 (21:10) 0 0 0 0 0
30-08-2020 28.2 (18:30) 12.5 (00:00) 20.4 9.17 (14:10) 5.83 (14:10) 0 0 0 0 0
29-08-2020 26.7 (19:10) 15.5 (00:00) 21.1 10.83 (15:30) 7.22 (14:00) 0 0 0 0 0
28-08-2020 32.6 (16:40) 21.8 (00:00) 27.2 11.39 (13:10) 8.06 (13:00) 0 0 0 0 0
27-08-2020 38.4 (15:30) 20.4 (00:00) 29.4 10.83 (19:10) 7.5 (19:30) 0 0 0 0 0
26-08-2020 38.1 (17:20) 19.1 (00:00) 28.6 8.89 (15:50) 5.28 (16:30) 0 0 0 0 0
25-08-2020 37.5 (17:50) 19.3 (00:00) 28.4 7.78 (02:30) 6.39 (02:30) 0 0 0 0 0
24-08-2020 35.9 (16:10) 17.3 (00:00) 26.6 8.61 (00:10) 5.28 (00:10) 0 0 0 0 0
23-08-2020 36.7 (15:50) 17.9 (00:00) 27.3 11.39 (15:50) 6.39 (18:10) 0 0 0 0 0
22-08-2020 35.8 (19:00) 16.6 (00:00) 26.2 7.5 (14:40) 4.72 (16:30) 0 0 0 0 0

Gráficas

Temp. máximas Temp. mínimas Temp. medias Precipitaciones Rachas de viento máximas Velocidades máximas media en intervalos de 10 minutos

Datos horarios

Fecha y hora oficial Temperatura (ºC) Velocidad del viento (km/h) Dirección del viento Racha (km/h) Dirección de racha Precipitación (mm) Presión (hPa) Tendencia (hPa) Humedad (%)
2020-09-20 23:00:00 18.8 6 Sur 8 Sur 0 -- -- 65
2020-09-20 22:00:00 19.6 6 Sudoeste 14 Sudoeste 0 -- -- 62
2020-09-20 21:00:00 20.9 10 Sudoeste 17 Sudoeste 0 -- -- 57
2020-09-20 20:00:00 22.4 9 Sudoeste 23 Noroeste 0 -- -- 51
2020-09-20 19:00:00 23.4 12 Noroeste 24 Oeste 0 -- -- 49
2020-09-20 18:00:00 24.1 14 Noroeste 28 Noroeste 0 -- -- 51
2020-09-20 17:00:00 26.4 10 Oeste 29 Sudoeste 0 -- -- 42
2020-09-20 16:00:00 25.9 9 Nordeste 30 Nordeste 0 -- -- 50
2020-09-20 15:00:00 25.1 12 Norte 28 Norte 0 -- -- 52
2020-09-20 14:00:00 24.8 10 Norte 17 Noroeste 0 -- -- 51
2020-09-20 13:00:00 22.7 5 Oeste 12 Sur 0 -- -- 55
2020-09-20 12:00:00 20.5 6 Norte 10 Nordeste 0 -- -- 66
2020-09-20 11:00:00 17.7 5 Norte 8 Norte 0 -- -- 76
2020-09-20 10:00:00 15.3 0 Calma 4 Sudoeste 0 -- -- 87
2020-09-20 09:00:00 11.5 5 Sudoeste 12 Sudoeste 0 -- -- 95
2020-09-20 08:00:00 10.9 8 Sudoeste 12 Sudoeste 0 -- -- 95
2020-09-20 07:00:00 11.4 9 Sudoeste 10 Sudoeste 0 -- -- 94
2020-09-20 06:00:00 12.2 6 Sudoeste 11 Sudoeste 0.2 -- -- 92
2020-09-20 05:00:00 13.1 5 Sudoeste 10 Sudoeste 0 -- -- 90
2020-09-20 04:00:00 14.7 6 Sudoeste 8 Sur 0 -- -- 84
2020-09-20 03:00:00 15.2 4 Sudoeste 14 Sur 0 -- -- 89
2020-09-20 02:00:00 15.2 9 Sur 14 Sudoeste 0 -- -- 92
2020-09-20 01:00:00 15 4 Sur 10 Norte 0 -- -- 92
2020-09-20 00:00:00 16.1 0 Calma 8 Sudoeste 0 -- -- 90
2020-09-19 23:00:00 16.4 3 Sudoeste 6 Sudoeste 0 -- -- 89
2020-09-19 22:00:00 16.6 0 Calma 11 Sudoeste 0 -- -- 89
2020-09-19 21:00:00 17 9 Sudoeste 15 Sur 0 -- -- 86
2020-09-19 20:00:00 18.3 0 Calma 13 Sur 0 -- -- 84
2020-09-19 19:00:00 17.8 8 Sudeste 18 Sudoeste 0.2 -- -- 90
2020-09-19 18:00:00 18.7 12 Sudoeste 20 Sudoeste 0 -- -- 83
2020-09-19 17:00:00 18.3 15 Sudoeste 33 Sudoeste 0.2 -- -- 86
2020-09-19 16:00:00 20.2 19 Sudoeste 46 Sudoeste 0 -- -- 73
2020-09-19 15:00:00 23 6 Sudoeste 30 Sudoeste 0 -- -- 51
2020-09-19 14:00:00 23.3 22 Sudoeste 33 Sudoeste 0 -- -- 50
2020-09-19 13:00:00 22.8 17 Sudoeste 28 Sudoeste 0 -- -- 51
2020-09-19 12:00:00 21.6 17 Sudoeste 26 Norte 0 -- -- 53
2020-09-19 11:00:00 19.9 16 Sudoeste 27 Sudoeste 0 -- -- 60
2020-09-19 10:00:00 19.2 17 Sudoeste 22 Sudoeste 0 -- -- 65
2020-09-19 09:00:00 17.1 4 Sur 10 Sur 0 -- -- 75
2020-09-19 08:00:00 16 9 Sudoeste 22 Sudoeste 0 -- -- 77
2020-09-19 07:00:00 16.9 19 Sudoeste 27 Sur 0 -- -- 73
2020-09-19 06:00:00 17.1 14 Sudoeste 23 Sudoeste 0 -- -- 78
2020-09-19 05:00:00 17.8 15 Sudoeste 24 Sudoeste 0 -- -- 75
2020-09-19 04:00:00 18 14 Sudoeste 28 Sudoeste 0 -- -- 74
2020-09-19 03:00:00 18.3 12 Sudoeste 19 Sudoeste 0 -- -- 70
2020-09-19 02:00:00 18.4 10 Sudoeste 16 Sur 0 -- -- 69
2020-09-19 01:00:00 18.9 14 Sur 31 Sur 0 -- -- 68
2020-09-19 00:00:00 19.5 19 Sur 29 Sur 0 -- -- 64
2020-09-18 23:00:00 20 19 Sur 29 Sur 0 -- -- 62
2020-09-18 22:00:00 20.3 17 Sur 36 Sur 0 -- -- 61
2020-09-18 21:00:00 21.2 26 Sur 56 Sur 0 -- -- 55
2020-09-18 20:00:00 22 31 Sur 57 Sudoeste 0 -- -- 58
2020-09-18 19:00:00 24.1 35 Sudoeste 62 Sudoeste 0 -- -- 52
2020-09-18 18:00:00 24.9 34 Sudoeste 58 Sudoeste 0 -- -- 52
2020-09-18 17:00:00 24.3 39 Sudoeste 65 Sur 0 -- -- 54
2020-09-18 16:00:00 23.9 38 Sur 68 Sur 0 -- -- 56
2020-09-18 15:00:00 23.5 39 Sur 66 Sudoeste 0 -- -- 60
2020-09-18 14:00:00 24.9 46 Sur 67 Sur 0 -- -- 49
2020-09-18 13:00:00 24.9 44 Sur 65 Sudoeste 0 -- -- 50
2020-09-18 12:00:00 24.1 32 Sur 58 Sudoeste 0 -- -- 53
2020-09-18 11:00:00 22.5 22 Sur 33 Sur 0 -- -- 60
2020-09-18 10:00:00 20.4 15 Sudoeste 28 Sur 0 -- -- 70
2020-09-18 09:00:00 19.4 9 Sudoeste 21 Sudoeste 0.2 -- -- 74
2020-09-18 08:00:00 19.6 13 Sur 24 Sur 0 -- -- 71
2020-09-18 07:00:00 20.1 12 Sudeste 24 Sudeste 0 -- -- 67
2020-09-18 06:00:00 20.4 17 Sur 39 Sudoeste 0 -- -- 66
2020-09-18 05:00:00 21 30 Sur 53 Sur 0 -- -- 62
2020-09-18 04:00:00 21.3 34 Sur 59 Sudoeste 0 -- -- 60
2020-09-18 03:00:00 21.7 39 Sur 63 Sur 0 -- -- 59
2020-09-18 02:00:00 21.8 28 Sur 62 Sudoeste 0 -- -- 55
2020-09-18 01:00:00 22.5 36 Sur 54 Sudoeste 0 -- -- 53
2020-09-18 00:00:00 22.3 31 Sur 53 Sur 0 -- -- 53
2020-09-17 23:00:00 22.6 32 Sur 46 Sur 0 -- -- 54
2020-09-17 22:00:00 23.4 33 Sur 48 Sur 0 -- -- 50
2020-09-17 21:00:00 24.4 35 Sur 61 Sur 0 -- -- 45
2020-09-17 20:00:00 26.8 38 Sur 69 Sur 0 -- -- 42
2020-09-17 19:00:00 28.3 33 Sur 50 Sur 0 -- -- 39
2020-09-17 18:00:00 28.9 22 Sur 48 Sudoeste 0 -- -- 38
2020-09-17 17:00:00 28.4 18 Sur 39 Sudoeste 0 -- -- 41
2020-09-17 16:00:00 29.3 21 Sur 42 Sudoeste 0 -- -- 36
2020-09-17 15:00:00 29.1 21 Sudoeste 44 Sudoeste 0 -- -- 38
2020-09-17 14:00:00 27.9 33 Sudoeste 48 Sudoeste 0 -- -- 40
2020-09-17 13:00:00 27.1 21 Sur 45 Sur 0 -- -- 43
2020-09-17 12:00:00 25.9 15 Sur 26 Sur 0 -- -- 47
2020-09-17 11:00:00 24.8 13 Sur 23 Sur 0 -- -- 50
2020-09-17 10:00:00 23.8 15 Sur 28 Sur 0 -- -- 54
2020-09-17 09:00:00 23.5 18 Sur 34 Sur 0 -- -- 55
2020-09-17 08:00:00 23.3 14 Sur 29 Sur 0 -- -- 56
2020-09-17 07:00:00 23.2 19 Sur 30 Sur 0 -- -- 56
2020-09-17 06:00:00 21.7 2 Sur 14 Sudoeste 0 -- -- 62
2020-09-17 05:00:00 21.7 8 Sudoeste 14 Sudoeste 0 -- -- 59
2020-09-17 04:00:00 22.6 8 Sudoeste 17 Sur 0 -- -- 53
2020-09-17 03:00:00 21.9 3 Nordeste 10 Este 0 -- -- 56
2020-09-17 02:00:00 21.7 5 Nordeste 10 Noroeste 0 -- -- 57
2020-09-17 01:00:00 22.1 5 Sudoeste 28 Sudeste 0 -- -- 56
2020-09-17 00:00:00 23.1 10 Sudoeste 23 Sudoeste 0 -- -- 51
2020-09-16 23:00:00 23.9 15 Sudoeste 30 Sudoeste 0 -- -- 43
2020-09-16 22:00:00 25.9 12 Sudoeste 19 Sudoeste 0 -- -- 39
2020-09-16 21:00:00 26.7 8 Sur 29 Sudoeste 0 -- -- 35
2020-09-16 20:00:00 27.6 17 Sudoeste 31 Sudoeste 0 -- -- 33
2020-09-16 19:00:00 28.6 23 Sudoeste 36 Sudoeste 0 -- -- 31
2020-09-16 18:00:00 30.3 14 Oeste 27 Sudoeste 0 -- -- 30
2020-09-16 17:00:00 31 9 Sur 25 Sur 0 -- -- 31
2020-09-16 16:00:00 30.5 12 Sur 28 Sudeste 0 -- -- 31
2020-09-16 15:00:00 30.2 12 Sudoeste 26 Sudoeste 0 -- -- 32
2020-09-16 14:00:00 30.8 15 Sur 26 Sur 0 -- -- 30
2020-09-16 13:00:00 28 4 Noroeste 12 Norte 0 -- -- 40
2020-09-16 12:00:00 27.6 7 Nordeste 14 Nordeste 0 -- -- 42
2020-09-16 11:00:00 24.6 5 Norte 9 Norte 0 -- -- 49
2020-09-16 10:00:00 20.2 0 Calma 9 Sudoeste 0 -- -- 59
2020-09-16 09:00:00 16.3 6 Sudoeste 13 Sudoeste 0 -- -- 71
2020-09-16 08:00:00 15.7 8 Sudoeste 9 Sudoeste 0 -- -- 71
2020-09-16 07:00:00 16.9 5 Sudoeste 10 Sudoeste 0 -- -- 68
2020-09-16 06:00:00 18.2 6 Sudoeste 10 Sudoeste 0 -- -- 63
2020-09-16 05:00:00 18.8 10 Sudoeste 14 Sudoeste 0 -- -- 62
2020-09-16 04:00:00 19.2 10 Sudoeste 17 Sudoeste 0 -- -- 62
2020-09-16 03:00:00 19.5 12 Sur 14 Sur 0 -- -- 61
2020-09-16 02:00:00 19.4 9 Sudoeste 11 Sudoeste 0 -- -- 60
2020-09-16 01:00:00 20.3 9 Sudoeste 10 Sudoeste 0 -- -- 57
2020-09-16 00:00:00 22.6 6 Sudoeste 13 Sur 0 -- -- 52
2020-09-15 23:00:00 24.1 12 Sur 16 Sur 0 -- -- 47
2020-09-15 22:00:00 24.9 9 Sur 13 Sudoeste 0 -- -- 46
2020-09-15 21:00:00 26.4 8 Sudoeste 18 Sudoeste 0 -- -- 46
2020-09-15 20:00:00 28.7 10 Sudoeste 25 Sudoeste 0 -- -- 43
2020-09-15 19:00:00 30 13 Sudoeste 32 Oeste 0 -- -- 40
2020-09-15 18:00:00 30.7 15 Sudoeste 25 Sudoeste 0 -- -- 37
2020-09-15 17:00:00 30.3 18 Sudoeste 31 Oeste 0 -- -- 38
2020-09-15 16:00:00 30.3 12 Sudoeste 27 Sudoeste 0 -- -- 40
2020-09-15 15:00:00 29.5 13 Sudoeste 22 Sudoeste 0 -- -- 41
2020-09-15 14:00:00 28.2 6 Sudoeste 20 Oeste 0 -- -- 46
2020-09-15 13:00:00 26.9 8 Norte 21 Nordeste 0 -- -- 51
2020-09-15 12:00:00 24.8 8 Nordeste 23 Nordeste 0 -- -- 58
2020-09-15 11:00:00 22.9 14 Nordeste 21 Nordeste 0 -- -- 66
2020-09-15 10:00:00 21.3 12 Nordeste 15 Nordeste 0 -- -- 73
2020-09-15 09:00:00 18.2 0 Calma 2 Noroeste 0 -- -- 72
2020-09-15 08:00:00 17.4 0 Calma 5 Sudoeste 0 -- -- 74
2020-09-15 07:00:00 17.7 0 Calma 3 Norte 0 -- -- 73
2020-09-15 06:00:00 17.7 2 Este 6 Sudoeste 0 -- -- 73
2020-09-15 05:00:00 18.6 3 Sudoeste 6 Sudoeste 0 -- -- 69
2020-09-15 04:00:00 19.5 4 Sur 6 Sudeste 0 -- -- 65
2020-09-15 03:00:00 19.9 6 Sudoeste 9 Sur 0 -- -- 65
2020-09-15 02:00:00 20.9 4 Sudoeste 17 Sudoeste 0 -- -- 61
2020-09-15 01:00:00 21.6 7 Sur 15 Sur 0 -- -- 59
2020-09-15 00:00:00 22.6 8 Sur 21 Sudoeste 0 -- -- 56
2020-09-14 23:00:00 23.5 15 Sur 25 Sudoeste 0 -- -- 53
2020-09-14 22:00:00 24.5 12 Sudoeste 25 Sudoeste 0 -- -- 47
2020-09-14 21:00:00 25.7 14 Sudoeste 28 Sudoeste 0 -- -- 41
2020-09-14 20:00:00 27.8 17 Sudoeste 28 Sudoeste 0 -- -- 36
2020-09-14 19:00:00 30.8 4 Norte 13 Norte 0 -- -- 32
2020-09-14 18:00:00 31 7 Oeste 17 Sudoeste 0 -- -- 32
2020-09-14 17:00:00 30 6 Noroeste 16 Sudoeste 0 -- -- 32
2020-09-14 16:00:00 30.2 15 Sudoeste 22 Sudoeste 0 -- -- 32
2020-09-14 15:00:00 31.2 10 Sudoeste 35 Sur 0 -- -- 29
2020-09-14 14:00:00 31.3 19 Sur 34 Sur 0 -- -- 29
2020-09-14 13:00:00 29.2 15 Sur 32 Sur 0 -- -- 31
2020-09-14 12:00:00 29.4 18 Sur 26 Sur 0 -- -- 30
2020-09-14 11:00:00 24.2 7 Oeste 14 Sudoeste 0 -- -- 44
2020-09-14 10:00:00 22.2 3 Norte 17 Sur 0 -- -- 51
2020-09-14 09:00:00 20.7 7 Sudoeste 8 Sudoeste 0 -- -- 54
2020-09-14 08:00:00 21.3 0 Calma 5 Oeste 0 -- -- 51
2020-09-14 07:00:00 22.1 3 Sur 10 Oeste 0 -- -- 49
2020-09-14 06:00:00 22.3 2 Noroeste 12 Este 0 -- -- 49
2020-09-14 05:00:00 23.6 0 Calma 24 Sudeste 0 -- -- 45
2020-09-14 04:00:00 24.5 14 Sudeste 27 Sudeste 0 -- -- 44
2020-09-14 03:00:00 24.1 5 Nordeste 24 Este 0 -- -- 45
2020-09-14 02:00:00 25.4 11 Este 24 Este 0 -- -- 42
2020-09-14 01:00:00 25.7 11 Este 26 Sur 0 -- -- 41
2020-09-14 00:00:00 24 8 Sudoeste 16 Este 0 -- -- 43
2020-09-13 23:00:00 26.3 7 Este 17 Oeste 0 -- -- 40
2020-09-13 22:00:00 27.4 5 Oeste 17 Sudoeste 0 -- -- 35
2020-09-13 21:00:00 28.3 12 Sudoeste 21 Sudoeste 0 -- -- 35
2020-09-13 20:00:00 31.9 9 Sudoeste 14 Noroeste 0 -- -- 27
2020-09-13 19:00:00 33.5 8 Norte 16 Norte 0 -- -- 25
2020-09-13 18:00:00 33.3 9 Norte 18 Nordeste 0 -- -- 26
2020-09-13 17:00:00 33.9 7 Norte 24 Nordeste 0 -- -- 25
2020-09-13 16:00:00 32.1 11 Norte 23 Norte 0 -- -- 27
2020-09-13 15:00:00 33.2 8 Sudoeste 26 Sur 0 -- -- 22
2020-09-13 14:00:00 33.3 9 Sudoeste 28 Sur 0 -- -- 23
2020-09-13 13:00:00 31.4 8 Oeste 22 Sudoeste 0 -- -- 27
2020-09-13 12:00:00 29.6 7 Sudoeste 17 Sudoeste 0 -- -- 29
2020-09-13 11:00:00 27.7 8 Oeste 14 Sudoeste 0 -- -- 32
2020-09-13 10:00:00 23.7 7 Sudoeste 16 Sudoeste 0 -- -- 40
2020-09-13 09:00:00 22.2 5 Sudoeste 11 Oeste 0 -- -- 43
2020-09-13 08:00:00 23.7 10 Sudeste 14 Sudeste 0 -- -- 39
2020-09-13 07:00:00 23 4 Sudoeste 19 Este 0 -- -- 40
2020-09-13 06:00:00 24.4 14 Este 28 Nordeste 0 -- -- 38
2020-09-13 05:00:00 23.3 3 Norte 7 Norte 0 -- -- 39
2020-09-13 04:00:00 24.2 3 Sudoeste 12 Norte 0 -- -- 37
2020-09-13 03:00:00 24.3 7 Norte 15 Norte 0 -- -- 37
2020-09-13 02:00:00 24 10 Norte 12 Norte 0 -- -- 37
2020-09-13 01:00:00 24.7 7 Sudoeste 17 Sudoeste 0 -- -- 36
2020-09-13 00:00:00 23.7 11 Sudoeste 14 Sudoeste 0 -- -- 37
2020-09-12 23:00:00 25.4 10 Sudoeste 16 Sudoeste 0 -- -- 34
2020-09-12 22:00:00 26.7 10 Sudoeste 19 Sudoeste 0 -- -- 31
2020-09-12 21:00:00 28.8 12 Sudoeste 24 Sudoeste 0 -- -- 28
2020-09-12 20:00:00 31.5 15 Sudoeste 24 Noroeste 0 -- -- 24
2020-09-12 19:00:00 33.9 8 Noroeste 19 Sudoeste 0 -- -- 23
2020-09-12 18:00:00 34.8 17 Sudoeste 27 Sudoeste 0 -- -- 20
2020-09-12 17:00:00 35.4 9 Sur 24 Sudoeste 0 -- -- 19
2020-09-12 16:00:00 34.4 13 Sudoeste 26 Sudoeste 0 -- -- 21
2020-09-12 15:00:00 33.5 19 Sudoeste 33 Sudoeste 0 -- -- 22
2020-09-12 14:00:00 33.3 11 Sur 25 Sudoeste 0 -- -- 23
2020-09-12 13:00:00 32 8 Sur 14 Sur 0 -- -- 27
2020-09-12 12:00:00 29.5 6 Noroeste 11 Norte 0 -- -- 31
2020-09-12 11:00:00 27.1 6 Nordeste 12 Nordeste 0 -- -- 36
2020-09-12 10:00:00 23.1 5 Nordeste 8 Norte 0 -- -- 43
2020-09-12 09:00:00 16.7 7 Sudoeste 9 Sudoeste 0 -- -- 57
2020-09-12 08:00:00 16.5 8 Sudoeste 10 Sudoeste 0 -- -- 56
2020-09-12 07:00:00 16.7 7 Sudoeste 12 Sudoeste 0 -- -- 57
2020-09-12 06:00:00 16.7 7 Sudoeste 9 Sudoeste 0 -- -- 57
2020-09-12 05:00:00 18.3 3 Sur 13 Sudoeste 0 -- -- 52
2020-09-12 04:00:00 18.5 9 Sudoeste 10 Sudoeste 0 -- -- 52
2020-09-12 03:00:00 19.5 2 Sudeste 14 Sudoeste 0 -- -- 50
2020-09-12 02:00:00 19.8 11 Sudoeste 14 Sudoeste 0 -- -- 49
2020-09-12 01:00:00 20.9 11 Sudoeste 12 Sudoeste 0 -- -- 46
2020-09-12 00:00:00 23.1 8 Sudoeste 14 Sudoeste 0 -- -- 41
2020-09-11 23:00:00 25.2 13 Sur 17 Sur 0 -- -- 37
2020-09-11 22:00:00 26.5 10 Sudoeste 17 Sudoeste 0 -- -- 35
2020-09-11 21:00:00 27.8 13 Sudoeste 25 Sudoeste 0 -- -- 33
2020-09-11 20:00:00 29.7 10 Noroeste 23 Norte 0 -- -- 31
2020-09-11 19:00:00 31.7 12 Norte 21 Norte 0 -- -- 29
2020-09-11 18:00:00 32.1 13 Norte 27 Norte 0 -- -- 28
2020-09-11 17:00:00 32.7 10 Norte 26 Norte 0 -- -- 28
2020-09-11 16:00:00 31.4 10 Oeste 26 Nordeste 0 -- -- 28
2020-09-11 15:00:00 32.1 12 Nordeste 29 Norte 0 -- -- 28
2020-09-11 14:00:00 31.6 18 Norte 29 Norte 0 -- -- 29
2020-09-11 13:00:00 30.5 10 Norte 20 Norte 0 -- -- 31
2020-09-11 12:00:00 29 9 Norte 15 Norte 0 -- -- 33
2020-09-11 11:00:00 25.8 8 Norte 11 Norte 0 -- -- 39
2020-09-11 10:00:00 22 2 Sudeste 9 Sudoeste 0 -- -- 45
2020-09-11 09:00:00 17.5 5 Sur 10 Sudoeste 0 -- -- 56
2020-09-11 08:00:00 16.2 12 Sudoeste 16 Sudoeste 0 -- -- 59
2020-09-11 07:00:00 16.6 13 Sudoeste 15 Sudoeste 0 -- -- 57
2020-09-11 06:00:00 17.8 5 Sudoeste 13 Oeste 0 -- -- 54
2020-09-11 05:00:00 18.5 12 Sudoeste 18 Sudoeste 0 -- -- 51
2020-09-11 04:00:00 19.9 9 Sudoeste 13 Sudoeste 0 -- -- 46
2020-09-11 03:00:00 20.1 11 Sudoeste 17 Sur 0 -- -- 43
2020-09-11 02:00:00 19.9 9 Sudoeste 13 Sudoeste 0 -- -- 41
2020-09-11 01:00:00 20 10 Sudoeste 14 Sudoeste 0 -- -- 40
2020-09-11 00:00:00 20.7 10 Sudoeste 12 Sudoeste 0 -- -- 39
2020-09-10 23:00:00 22.3 9 Sudoeste 11 Sudoeste 0 -- -- 36
2020-09-10 22:00:00 23.6 12 Sudoeste 13 Sudoeste 0 -- -- 34
2020-09-10 21:00:00 27.4 4 Sudoeste 9 Norte 0 -- -- 27
2020-09-10 20:00:00 30.1 5 Norte 18 Norte 0 -- -- 24
2020-09-10 19:00:00 31.2 10 Norte 23 Noroeste 0 -- -- 24
2020-09-10 18:00:00 31.3 9 Noroeste 22 Nordeste 0 -- -- 25
2020-09-10 17:00:00 31.2 9 Norte 22 Norte 0 -- -- 25
2020-09-10 16:00:00 31.2 9 Norte 28 Nordeste 0 -- -- 25
2020-09-10 15:00:00 30.3 14 Norte 31 Norte 0 -- -- 26
2020-09-10 14:00:00 30.3 14 Nordeste 25 Norte 0 -- -- 29
2020-09-10 13:00:00 29.2 12 Nordeste 18 Nordeste 0 -- -- 34
2020-09-10 12:00:00 27 5 Nordeste 13 Este 0 -- -- 40
2020-09-10 11:00:00 24.4 3 Noroeste 8 Norte 0 -- -- 44
2020-09-10 10:00:00 20.3 3 Sudoeste 10 Sudoeste 0 -- -- 55
2020-09-10 09:00:00 17 7 Sudoeste 13 Sudoeste 0 -- -- 63
2020-09-10 08:00:00 16.4 8 Sudoeste 11 Sudoeste 0 -- -- 62
2020-09-10 07:00:00 17.3 12 Sudoeste 13 Sudoeste 0 -- -- 59
2020-09-10 06:00:00 18 9 Sudoeste 13 Sudoeste 0 -- -- 57
2020-09-10 05:00:00 19.5 8 Sudoeste 18 Sudoeste 0 -- -- 52
2020-09-10 04:00:00 20.9 14 Sur 23 Sudoeste 0 -- -- 48
2020-09-10 03:00:00 21.6 17 Sur 23 Sur 0 -- -- 47
2020-09-10 02:00:00 19.2 13 Sudoeste 19 Sur 0 -- -- 50
2020-09-10 01:00:00 19.8 9 Sudoeste 13 Sudoeste 0 -- -- 47
2020-09-10 00:00:00 20.9 9 Sudoeste 15 Sudoeste 0 -- -- 45
2020-09-09 23:00:00 22.1 8 Sudoeste 14 Sudoeste 0 -- -- 42
2020-09-09 22:00:00 24.1 9 Sudoeste 13 Sudoeste 0 -- -- 38
2020-09-09 21:00:00 26.5 7 Oeste 15 Oeste 0 -- -- 33
2020-09-09 20:00:00 28.6 9 Noroeste 20 Norte 0 -- -- 31
2020-09-09 19:00:00 29.6 8 Noroeste 20 Noroeste 0 -- -- 32
2020-09-09 18:00:00 28.8 10 Noroeste 22 Noroeste 0 -- -- 34
2020-09-09 17:00:00 28.1 7 Oeste 22 Norte 0 -- -- 37
2020-09-09 16:00:00 28.4 10 Norte 25 Norte 0 -- -- 38
2020-09-09 15:00:00 29.2 13 Norte 27 Norte 0 -- -- 39
2020-09-09 14:00:00 28.4 8 Sudoeste 17 Sudoeste 0 -- -- 40
2020-09-09 13:00:00 27 6 Oeste 15 Norte 0 -- -- 43
2020-09-09 12:00:00 25.9 7 Nordeste 14 Nordeste 0 -- -- 46
2020-09-09 11:00:00 23.3 5 Nordeste 10 Nordeste 0 -- -- 55
2020-09-09 10:00:00 19.9 0 Calma 7 Sudoeste 0 -- -- 69
2020-09-09 09:00:00 16.2 5 Sudoeste 11 Sudoeste 0 -- -- 77
2020-09-09 08:00:00 17 5 Nordeste 11 Norte 0 -- -- 78
2020-09-09 07:00:00 17.2 7 Nordeste 9 Norte 0 -- -- 76
2020-09-09 06:00:00 18.9 2 Oeste 13 Sur 0 -- -- 72
2020-09-09 05:00:00 18 10 Sudoeste 15 Sudoeste 0 -- -- 69
2020-09-09 04:00:00 19.4 3 Oeste 11 Oeste 0 -- -- 67
2020-09-09 03:00:00 20.3 6 Sudoeste 20 Sur 0 -- -- 64
2020-09-09 02:00:00 20.7 9 Sudoeste 22 Sur 0 -- -- 60
2020-09-09 01:00:00 20.8 14 Sur 21 Sur 0 -- -- 60
2020-09-09 00:00:00 20.7 8 Sudoeste 19 Sur 0 -- -- 55
2020-09-08 23:00:00 21.6 10 Sudoeste 18 Sur 0 -- -- 52
2020-09-08 22:00:00 22.6 15 Sur 19 Sur 0 -- -- 50
2020-09-08 21:00:00 24 15 Sudoeste 33 Sudoeste 0 -- -- 46
2020-09-08 20:00:00 26.2 23 Sudoeste 32 Sudoeste 0 -- -- 42
2020-09-08 19:00:00 27.9 23 Sudoeste 33 Sudoeste 0 -- -- 40
2020-09-08 18:00:00 28.1 17 Sudoeste 32 Sudoeste 0 -- -- 40
2020-09-08 17:00:00 29.9 13 Sudoeste 23 Sudoeste 0 -- -- 38
2020-09-08 16:00:00 28.6 10 Oeste 24 Sudoeste 0 -- -- 39
2020-09-08 15:00:00 29.3 14 Sur 25 Sur 0 -- -- 38
2020-09-08 14:00:00 28.3 12 Sur 29 Sur 0 -- -- 41
2020-09-08 13:00:00 26.9 17 Sudeste 27 Sudeste 0 -- -- 47
2020-09-08 12:00:00 26.1 16 Sur 28 Sur 0 -- -- 51
2020-09-08 11:00:00 25 9 Sudeste 20 Sur 0 -- -- 55
2020-09-08 10:00:00 22.1 4 Noroeste 6 Sudoeste 0 -- -- 64
2020-09-08 09:00:00 18.1 5 Sudoeste 10 Sudoeste 0 -- -- 74
2020-09-08 08:00:00 18.3 2 Sudeste 10 Norte 0 -- -- 72
2020-09-08 07:00:00 18.9 5 Nordeste 7 Nordeste 0 -- -- 73
2020-09-08 06:00:00 19.6 5 Sudoeste 10 Sudoeste 0 -- -- 68
2020-09-08 05:00:00 20.5 8 Sudoeste 21 Sudoeste 0 -- -- 66
2020-09-08 04:00:00 21.8 11 Sur 21 Sudoeste 0 -- -- 58
2020-09-08 03:00:00 23.2 15 Sudoeste 27 Sur 0 -- -- 51
2020-09-08 02:00:00 23.5 10 Sudoeste 19 Sudoeste 0 -- -- 46
2020-09-08 01:00:00 24 5 Sudoeste 9 Sudoeste 0 -- -- 43
2020-09-08 00:00:00 25.4 4 Sudoeste 8 Sudoeste 0 -- -- 37
2020-09-07 23:00:00 26.4 4 Norte 17 Nordeste 0 -- -- 35
2020-09-07 22:00:00 28 5 Norte 17 Oeste 0 -- -- 35
2020-09-07 21:00:00 29.9 12 Oeste 19 Oeste 0 -- -- 32
2020-09-07 20:00:00 32.1 6 Noroeste 22 Norte 0 -- -- 29
2020-09-07 19:00:00 32.8 8 Norte 30 Norte 0 -- -- 28
2020-09-07 18:00:00 33.2 12 Norte 31 Nordeste 0 -- -- 26
2020-09-07 17:00:00 32.5 7 Noroeste 25 Norte 0 -- -- 28
2020-09-07 16:00:00 32.4 18 Norte 33 Norte 0 -- -- 28
2020-09-07 15:00:00 32.7 15 Norte 27 Norte 0 -- -- 30
2020-09-07 14:00:00 30.9 16 Nordeste 27 Nordeste 0 -- -- 39
2020-09-07 13:00:00 29.7 15 Nordeste 22 Nordeste 0 -- -- 42
2020-09-07 12:00:00 28.5 9 Nordeste 18 Nordeste 0 -- -- 43
2020-09-07 11:00:00 26.4 5 Norte 9 Norte 0 -- -- 48
2020-09-07 10:00:00 23.5 4 Norte 8 Sudoeste 0 -- -- 57
2020-09-07 09:00:00 19.2 8 Sudoeste 14 Sudoeste 0 -- -- 69
2020-09-07 08:00:00 18.2 12 Sudoeste 13 Sudoeste 0 -- -- 72
2020-09-07 07:00:00 18.7 13 Sudoeste 16 Sudoeste 0 -- -- 71
2020-09-07 06:00:00 19.1 10 Sudoeste 13 Sudoeste 0 -- -- 70
2020-09-07 05:00:00 20.5 8 Sudoeste 21 Sur 0 -- -- 66
2020-09-07 04:00:00 21.5 15 Sur 26 Sudoeste 0 -- -- 63
2020-09-07 03:00:00 21.9 17 Sur 22 Sur 0 -- -- 63
2020-09-07 02:00:00 22.2 16 Sur 29 Sudoeste 0 -- -- 61
2020-09-07 01:00:00 23.2 22 Sudoeste 29 Sur 0 -- -- 58
2020-09-07 00:00:00 24.4 17 Sudoeste 24 Sudoeste 0 -- -- 53
2020-09-06 23:00:00 25.2 21 Sudoeste 30 Sudoeste 0 -- -- 50
2020-09-06 22:00:00 26.8 15 Sudoeste 27 Sudoeste 0 -- -- 42
2020-09-06 21:00:00 28.5 14 Sudoeste 24 Sudoeste 0 -- -- 40
2020-09-06 20:00:00 31.4 14 Sudoeste 21 Sudoeste 0 -- -- 36
2020-09-06 19:00:00 32.6 11 Noroeste 27 Noroeste 0 -- -- 33
2020-09-06 18:00:00 32.6 10 Noroeste 25 Noroeste 0 -- -- 33
2020-09-06 17:00:00 32.1 16 Norte 30 Norte 0 -- -- 34
2020-09-06 16:00:00 32.7 13 Noroeste 28 Norte 0 -- -- 33
2020-09-06 15:00:00 32.7 13 Norte 26 Nordeste 0 -- -- 33
2020-09-06 14:00:00 31.8 12 Norte 22 Norte 0 -- -- 34
2020-09-06 13:00:00 30.2 6 Norte 16 Norte 0 -- -- 37
2020-09-06 12:00:00 28.1 8 Norte 17 Norte 0 -- -- 43
2020-09-06 11:00:00 26.1 4 Norte 9 Nordeste 0 -- -- 50
2020-09-06 10:00:00 22.7 4 Nordeste 6 Nordeste 0 -- -- 54
2020-09-06 09:00:00 17.9 5 Sudoeste 9 Sudoeste 0 -- -- 65
2020-09-06 08:00:00 17.5 2 Oeste 6 Sudoeste 0 -- -- 64
2020-09-06 07:00:00 17.9 3 Oeste 9 Sudoeste 0 -- -- 64
2020-09-06 06:00:00 18.1 6 Sudoeste 13 Sudoeste 0 -- -- 62
2020-09-06 05:00:00 18.8 8 Sudoeste 10 Sudoeste 0 -- -- 60
2020-09-06 04:00:00 19.6 6 Sudoeste 12 Sudoeste 0 -- -- 60
2020-09-06 03:00:00 20.5 9 Sudoeste 12 Sudoeste 0 -- -- 57
2020-09-06 02:00:00 21.3 6 Sur 10 Sudoeste 0 -- -- 55
2020-09-06 01:00:00 22.6 10 Sudoeste 20 Sudoeste 0 -- -- 52
2020-09-06 00:00:00 23.9 13 Sudoeste 21 Sudoeste 0 -- -- 49
2020-09-05 23:00:00 25.4 15 Sudoeste 21 Sudoeste 0 -- -- 45
2020-09-05 22:00:00 26.8 14 Sur 19 Sur 0 -- -- 43
2020-09-05 21:00:00 28.6 12 Sudoeste 16 Sudoeste 0 -- -- 40
2020-09-05 20:00:00 31.7 8 Oeste 20 Norte 0 -- -- 34
2020-09-05 19:00:00 31.9 13 Norte 30 Norte 0 -- -- 33
2020-09-05 18:00:00 32.3 16 Norte 29 Norte 0 -- -- 33
2020-09-05 17:00:00 32.6 14 Norte 29 Norte 0 -- -- 34
2020-09-05 16:00:00 32.8 15 Norte 24 Norte 0 -- -- 32
2020-09-05 15:00:00 31.9 15 Norte 27 Nordeste 0 -- -- 33
2020-09-05 14:00:00 31.1 15 Norte 26 Norte 0 -- -- 35
2020-09-05 13:00:00 30 6 Norte 17 Nordeste 0 -- -- 37
2020-09-05 12:00:00 26.9 4 Noroeste 10 Norte 0 -- -- 44
2020-09-05 11:00:00 25.4 5 Nordeste 11 Nordeste 0 -- -- 49
2020-09-05 10:00:00 21.8 6 Nordeste 10 Nordeste 0 -- -- 58
2020-09-05 09:00:00 16.3 5 Sudoeste 7 Sudoeste 0 -- -- 68
2020-09-05 08:00:00 16.1 0 Calma 5 Sudoeste 0 -- -- 68
2020-09-05 07:00:00 16 4 Sudoeste 13 Sudoeste 0 -- -- 68
2020-09-05 06:00:00 15.4 10 Sudoeste 13 Sudoeste 0 -- -- 70
2020-09-05 05:00:00 17.4 4 Sudoeste 10 Sudoeste 0 -- -- 63
2020-09-05 04:00:00 17.5 8 Sudoeste 12 Sudoeste 0 -- -- 63
2020-09-05 03:00:00 18.7 7 Sudoeste 13 Sudoeste 0 -- -- 61
2020-09-05 02:00:00 19.8 8 Sur 14 Sudoeste 0 -- -- 59
2020-09-05 01:00:00 20.7 9 Sudoeste 18 Sudoeste 0 -- -- 57
2020-09-05 00:00:00 22.1 13 Sudoeste 18 Sudoeste 0 -- -- 53
2020-09-04 23:00:00 23.4 16 Sudoeste 25 Sudoeste 0 -- -- 50
2020-09-04 22:00:00 24.6 18 Sudoeste 34 Sudoeste 0 -- -- 47
2020-09-04 21:00:00 26.6 22 Sudoeste 34 Sudoeste 0 -- -- 40
2020-09-04 20:00:00 29.6 24 Sudoeste 35 Sudoeste 0 -- -- 32
2020-09-04 19:00:00 32.9 11 Noroeste 22 Norte 0 -- -- 25
2020-09-04 18:00:00 33.2 13 Norte 25 Norte 0 -- -- 24
2020-09-04 17:00:00 33.1 13 Norte 28 Norte 0 -- -- 22
2020-09-04 16:00:00 33.2 17 Nordeste 28 Norte 0 -- -- 22
2020-09-04 15:00:00 32.4 12 Oeste 35 Oeste 0 -- -- 20
2020-09-04 14:00:00 31.8 9 Nordeste 19 Sur 0 -- -- 22
2020-09-04 13:00:00 29.8 10 Oeste 18 Nordeste 0 -- -- 25
2020-09-04 12:00:00 28 7 Noroeste 15 Nordeste 0 -- -- 30
2020-09-04 11:00:00 25.8 5 Norte 11 Sudoeste 0 -- -- 37
2020-09-04 10:00:00 22.2 0 Calma 13 Sudoeste 0 -- -- 48
2020-09-04 09:00:00 18 12 Sudoeste 14 Oeste 0 -- -- 61
2020-09-04 08:00:00 17.7 10 Sudoeste 13 Oeste 0 -- -- 60
2020-09-04 07:00:00 19 6 Sudoeste 20 Sur 0 -- -- 57
2020-09-04 06:00:00 19.5 5 Sudoeste 18 Este 0 -- -- 55
2020-09-04 05:00:00 22.3 15 Sudeste 25 Sudeste 0 -- -- 46
2020-09-04 04:00:00 21.5 11 Sur 26 Sudeste 0 -- -- 48
2020-09-04 03:00:00 22.8 6 Sur 13 Sur 0 -- -- 49
2020-09-04 02:00:00 23.8 4 Sur 21 Sur 0 -- -- 48
2020-09-04 01:00:00 22.5 7 Nordeste 14 Nordeste 0 -- -- 52
2020-09-04 00:00:00 22.6 10 Sudoeste 14 Sudoeste 0 -- -- 46
2020-09-03 23:00:00 23.2 12 Sudoeste 17 Sur 0 -- -- 43
2020-09-03 22:00:00 25 14 Sudoeste 18 Sudoeste 0 -- -- 39
2020-09-03 21:00:00 26.8 14 Sudoeste 33 Oeste 0 -- -- 36
2020-09-03 20:00:00 29.4 24 Sudoeste 36 Sudoeste 0 -- -- 32
2020-09-03 19:00:00 32.6 12 Noroeste 30 Noroeste 0 -- -- 27
2020-09-03 18:00:00 32.9 9 Norte 22 Norte 0 -- -- 26
2020-09-03 17:00:00 32.5 13 Noroeste 27 Norte 0 -- -- 27
2020-09-03 16:00:00 32.9 14 Nordeste 24 Nordeste 0 -- -- 26
2020-09-03 15:00:00 32.2 13 Sur 24 Sur 0 -- -- 25
2020-09-03 14:00:00 30.5 7 Sur 23 Oeste 0 -- -- 29
2020-09-03 13:00:00 30 6 Este 20 Nordeste 0 -- -- 35
2020-09-03 12:00:00 27 8 Oeste 16 Oeste 0 -- -- 41
2020-09-03 11:00:00 25 6 Norte 9 Norte 0 -- -- 44
2020-09-03 10:00:00 22 2 Nordeste 8 Sudoeste 0 -- -- 51
2020-09-03 09:00:00 15.8 6 Sudoeste 10 Sudoeste 0 -- -- 63
2020-09-03 08:00:00 14.7 7 Sudoeste 8 Sudoeste 0 -- -- 64
2020-09-03 07:00:00 15.5 7 Sudoeste 9 Sudoeste 0 -- -- 61
2020-09-03 06:00:00 15.4 6 Sudoeste 10 Sudoeste 0 -- -- 62
2020-09-03 05:00:00 17.2 0 Calma 9 Sudoeste 0 -- -- 55
2020-09-03 04:00:00 16.3 7 Sudoeste 15 Sudoeste 0 -- -- 60
2020-09-03 03:00:00 17.4 6 Sudoeste 8 Sudoeste 0 -- -- 57
2020-09-03 02:00:00 18.3 9 Sudoeste 14 Sudoeste 0 -- -- 55
2020-09-03 01:00:00 19.6 10 Sudoeste 13 Sudoeste 0 -- -- 51
2020-09-03 00:00:00 21.8 8 Sur 18 Sur 0 -- -- 46
2020-09-02 23:00:00 22.9 13 Sur 23 Sur 0 -- -- 44
2020-09-02 22:00:00 24.4 16 Sudoeste 30 Sudoeste 0 -- -- 41
2020-09-02 21:00:00 25.8 19 Sudoeste 46 Sudoeste 0 -- -- 39
2020-09-02 20:00:00 28.7 21 Sudoeste 35 Sudoeste 0 -- -- 34
2020-09-02 19:00:00 29.9 8 Norte 26 Norte 0 -- -- 27
2020-09-02 18:00:00 30.5 16 Norte 30 Norte 0 -- -- 26
2020-09-02 17:00:00 30.6 10 Norte 34 Norte 0 -- -- 27
2020-09-02 16:00:00 30.3 13 Noroeste 30 Norte 0 -- -- 26
2020-09-02 15:00:00 30.5 8 Nordeste 25 Norte 0 -- -- 26
2020-09-02 14:00:00 29.7 15 Norte 27 Sudeste 0 -- -- 28
2020-09-02 13:00:00 29.1 12 Nordeste 19 Nordeste 0 -- -- 29
2020-09-02 12:00:00 26.9 9 Nordeste 14 Nordeste 0 -- -- 32
2020-09-02 11:00:00 24.2 5 Norte 8 Noroeste 0 -- -- 35
2020-09-02 10:00:00 19 2 Sudoeste 10 Sudoeste 0 -- -- 47
2020-09-02 09:00:00 14.7 8 Sudoeste 12 Sudoeste 0 -- -- 55
2020-09-02 08:00:00 13.7 9 Sudoeste 12 Sudoeste 0 -- -- 57
2020-09-02 07:00:00 14.1 11 Sudoeste 12 Sudoeste 0 -- -- 55
2020-09-02 06:00:00 15.3 9 Sudoeste 12 Sudoeste 0 -- -- 51
2020-09-02 05:00:00 16.3 10 Sudoeste 11 Sudoeste 0 -- -- 48
2020-09-02 04:00:00 17.9 9 Oeste 12 Sudoeste 0 -- -- 45
2020-09-02 03:00:00 19.7 5 Sudoeste 12 Sudoeste 0 -- -- 41
2020-09-02 02:00:00 20.4 12 Sudoeste 22 Sudoeste 0 -- -- 40
2020-09-02 01:00:00 21.3 14 Sudoeste 27 Sudoeste 0 -- -- 38
2020-09-02 00:00:00 20.5 11 Sudoeste 19 Sudoeste 0 -- -- 43
2020-09-01 23:00:00 21.9 6 Sur 9 Sudoeste 0 -- -- 41
2020-09-01 22:00:00 23 7 Sudoeste 10 Sur 0 -- -- 40
2020-09-01 21:00:00 25.5 5 Sudoeste 15 Noroeste 0 -- -- 36
2020-09-01 20:00:00 27.7 9 Noroeste 23 Noroeste 0 -- -- 33
2020-09-01 19:00:00 28.8 10 Norte 20 Norte 0 -- -- 31
2020-09-01 18:00:00 28.7 11 Sudoeste 20 Oeste 0 -- -- 31
2020-09-01 17:00:00 29 10 Noroeste 32 Norte 0 -- -- 32
2020-09-01 16:00:00 28 19 Nordeste 30 Nordeste 0 -- -- 36
2020-09-01 15:00:00 27.3 6 Nordeste 17 Norte 0 -- -- 37
2020-09-01 14:00:00 26.6 7 Nordeste 13 Nordeste 0 -- -- 39
2020-09-01 13:00:00 24 9 Oeste 14 Oeste 0 -- -- 43
2020-09-01 12:00:00 24.6 5 Este 9 Norte 0 -- -- 46
2020-09-01 11:00:00 20.6 5 Sudoeste 11 Sudoeste 0 -- -- 51
2020-09-01 10:00:00 16.7 6 Sudoeste 10 Sudoeste 0 -- -- 63
2020-09-01 09:00:00 14.7 10 Sudoeste 12 Sudoeste 0 -- -- 67
2020-09-01 08:00:00 13.9 7 Sudoeste 11 Sudoeste 0 -- -- 68
2020-09-01 07:00:00 14 8 Sudoeste 10 Sudoeste 0 -- -- 68
2020-09-01 06:00:00 15.2 5 Sudoeste 9 Sudoeste 0 -- -- 64
2020-09-01 05:00:00 15.8 0 Calma 14 Sudoeste 0 -- -- 61
2020-09-01 04:00:00 17 6 Sudoeste 11 Sudoeste 0 -- -- 58
2020-09-01 03:00:00 17.8 10 Sudoeste 14 Sudoeste 0 -- -- 56
2020-09-01 02:00:00 18.1 10 Sudoeste 14 Sudoeste 0 -- -- 56
2020-09-01 01:00:00 18.7 11 Sudoeste 14 Sur 0 -- -- 55
2020-09-01 00:00:00 20.6 12 Sur 19 Sudoeste 0 -- -- 50
2020-08-31 23:00:00 22.1 14 Sudoeste 23 Sudoeste 0 -- -- 46
2020-08-31 22:00:00 23.3 15 Sudoeste 31 Sudoeste 0 -- -- 43
2020-08-31 21:00:00 25.2 22 Sudoeste 32 Sudoeste 0 -- -- 37
2020-08-31 20:00:00 28.6 19 Oeste 29 Oeste 0 -- -- 32
2020-08-31 19:00:00 30.1 15 Norte 29 Noroeste 0 -- -- 28
2020-08-31 18:00:00 31 10 Noroeste 23 Noroeste 0 -- -- 25
2020-08-31 17:00:00 31.4 9 Oeste 27 Oeste 0 -- -- 23
2020-08-31 16:00:00 30 13 Oeste 26 Sudoeste 0 -- -- 25
2020-08-31 15:00:00 29.7 11 Sur 23 Sur 0 -- -- 25
2020-08-31 14:00:00 28.7 15 Sur 28 Sur 0 -- -- 24
2020-08-31 13:00:00 27.7 13 Sur 30 Sudoeste 0 -- -- 25
2020-08-31 12:00:00 26.6 12 Sudeste 22 Sur 0 -- -- 28
2020-08-31 11:00:00 23.4 5 Noroeste 13 Oeste 0 -- -- 39
2020-08-31 10:00:00 20.5 3 Sudoeste 8 Sudoeste 0 -- -- 48
2020-08-31 09:00:00 14.3 7 Sudoeste 12 Sudoeste 0 -- -- 49
2020-08-31 08:00:00 12.6 6 Sudoeste 10 Sudoeste 0 -- -- 49
2020-08-31 07:00:00 12.7 8 Sudoeste 15 Sudoeste 0 -- -- 47
2020-08-31 06:00:00 12.2 9 Sudoeste 15 Sudoeste 0 -- -- 49
2020-08-31 05:00:00 13.3 10 Sudoeste 15 Sudoeste 0 -- -- 44
2020-08-31 04:00:00 14 9 Sudoeste 14 Sudoeste 0 -- -- 43
2020-08-31 03:00:00 14.9 6 Sudoeste 9 Sudoeste 0 -- -- 40
2020-08-31 02:00:00 15.7 9 Sudoeste 10 Sudoeste 0 -- -- 37
2020-08-31 01:00:00 16.7 11 Sudoeste 15 Sudoeste 0 -- -- 35
2020-08-31 00:00:00 18.5 6 Nordeste 15 Nordeste 0 -- -- 32
2020-08-30 23:00:00 19.6 7 Sudoeste 10 Sudoeste 0 -- -- 30
2020-08-30 22:00:00 21.7 8 Sudoeste 9 Sudoeste 0 -- -- 26
2020-08-30 21:00:00 24.5 0 Calma 13 Norte 0 -- -- 22
2020-08-30 20:00:00 27 6 Norte 28 Norte 0 -- -- 19
2020-08-30 19:00:00 27.6 14 Norte 27 Norte 0 -- -- 20
2020-08-30 18:00:00 28 12 Norte 31 Noroeste 0 -- -- 20
2020-08-30 17:00:00 27.9 13 Norte 30 Norte 0 -- -- 21
2020-08-30 16:00:00 27.5 15 Norte 28 Norte 0 -- -- 22
2020-08-30 15:00:00 27.3 11 Norte 33 Nordeste 0 -- -- 22
2020-08-30 14:00:00 26.1 13 Norte 26 Nordeste 0 -- -- 24
2020-08-30 13:00:00 25.6 14 Nordeste 24 Norte 0 -- -- 25
2020-08-30 12:00:00 24.2 12 Nordeste 20 Nordeste 0 -- -- 29
2020-08-30 11:00:00 20.1 4 Nordeste 9 Nordeste 0 -- -- 35
2020-08-30 10:00:00 15.3 6 Sudoeste 8 Sudoeste 0 -- -- 44
2020-08-30 09:00:00 13.6 3 Sudoeste 8 Oeste 0 -- -- 46
2020-08-30 08:00:00 12.5 6 Sudoeste 8 Oeste 0 -- -- 49
2020-08-30 07:00:00 12.6 6 Sudoeste 9 Sudoeste 0 -- -- 48
2020-08-30 06:00:00 13.3 7 Sudoeste 11 Sudoeste 0 -- -- 45
2020-08-30 05:00:00 14.7 2 Noroeste 8 Sudoeste 0 -- -- 41
2020-08-30 04:00:00 15.5 0 Calma 8 Sudoeste 0 -- -- 39
2020-08-30 03:00:00 15.6 6 Sudoeste 9 Sudoeste 0 -- -- 39
2020-08-30 02:00:00 18.4 4 Nordeste 6 Nordeste 0 -- -- 33
2020-08-30 01:00:00 19.7 0 Calma 12 Nordeste 0 -- -- 31
2020-08-30 00:00:00 20.7 9 Nordeste 16 Norte 0 -- -- 29
2020-08-29 23:00:00 21.8 10 Nordeste 26 Norte 0 -- -- 28
2020-08-29 22:00:00 22.1 5 Noroeste 12 Norte 0 -- -- 30
2020-08-29 21:00:00 23.7 4 Norte 12 Norte 0 -- -- 29
2020-08-29 20:00:00 26.2 6 Norte 24 Norte 0 -- -- 26
2020-08-29 19:00:00 26.4 10 Oeste 34 Noroeste 0 -- -- 26
2020-08-29 18:00:00 26.3 12 Noroeste 31 Noroeste 0 -- -- 25
2020-08-29 17:00:00 25.6 15 Oeste 38 Oeste 0 -- -- 24
2020-08-29 16:00:00 24.1 17 Noroeste 39 Noroeste 0 -- -- 23
2020-08-29 15:00:00 24.8 18 Oeste 38 Sudoeste 0 -- -- 19
2020-08-29 14:00:00 23.4 26 Sudoeste 37 Sudoeste 0 -- -- 34
2020-08-29 13:00:00 22.4 18 Sudoeste 30 Sudoeste 0 -- -- 42
2020-08-29 12:00:00 21.3 13 Sudoeste 25 Sudoeste 0 -- -- 43
2020-08-29 11:00:00 20.9 4 Sur 22 Sudoeste 0 -- -- 42
2020-08-29 10:00:00 17.9 18 Sudoeste 24 Sudoeste 0 -- -- 50
2020-08-29 09:00:00 16.8 9 Sudoeste 15 Sudoeste 0 -- -- 50
2020-08-29 08:00:00 15.5 11 Sudoeste 17 Sudoeste 0 -- -- 49
2020-08-29 07:00:00 16.4 6 Sudoeste 10 Oeste 0 -- -- 45
2020-08-29 06:00:00 17.4 8 Sudoeste 18 Sudoeste 0 -- -- 41
2020-08-29 05:00:00 18.2 10 Sudoeste 17 Sudoeste 0 -- -- 38
2020-08-29 04:00:00 19.6 12 Sudoeste 23 Sudoeste 0 -- -- 34
2020-08-29 03:00:00 21.2 14 Sudoeste 24 Sudoeste 0 -- -- 33
2020-08-29 02:00:00 22.7 18 Sudoeste 26 Sudoeste 0 -- -- 30
2020-08-29 01:00:00 23.8 14 Sudoeste 24 Sur 0 -- -- 36
2020-08-29 00:00:00 25.1 14 Sur 33 Sudoeste 0 -- -- 50
2020-08-28 23:00:00 26.3 21 Sudoeste 32 Sudoeste 0 -- -- 49
2020-08-28 22:00:00 27.8 20 Sudoeste 40 Oeste 0 -- -- 45
2020-08-28 21:00:00 29.2 19 Oeste 37 Sudoeste 0 -- -- 39
2020-08-28 20:00:00 30.9 22 Sudoeste 36 Sudoeste 0 -- -- 36
2020-08-28 19:00:00 31.7 20 Sudoeste 41 Oeste 0 -- -- 34
2020-08-28 18:00:00 31 23 Oeste 39 Oeste 0 -- -- 36
2020-08-28 17:00:00 32.1 22 Sudoeste 38 Oeste 0 -- -- 33
2020-08-28 16:00:00 32 27 Sudoeste 38 Oeste 0 -- -- 36
2020-08-28 15:00:00 31.6 25 Sudoeste 37 Sudoeste 0 -- -- 34
2020-08-28 14:00:00 30.7 24 Sudoeste 41 Oeste 0 -- -- 32
2020-08-28 13:00:00 29.8 29 Sudoeste 41 Oeste 0 -- -- 37
2020-08-28 12:00:00 29 21 Sudoeste 28 Norte 0 -- -- 39
2020-08-28 11:00:00 27.7 16 Sudoeste 22 Sudoeste 0 -- -- 40
2020-08-28 10:00:00 26.3 12 Sudoeste 16 Sur 0 -- -- 44
2020-08-28 09:00:00 23.7 0 Calma 19 Sur 0 -- -- 48
2020-08-28 08:00:00 21.8 9 Sudoeste 18 Sur 0 -- -- 50
2020-08-28 07:00:00 23.5 14 Sur 19 Sur 0 -- -- 46
2020-08-28 06:00:00 24 14 Sur 19 Sur 0 -- -- 44
2020-08-28 05:00:00 25 15 Sur 20 Sur 0 -- -- 41
2020-08-28 04:00:00 25 12 Sudoeste 17 Sudoeste 0 -- -- 38
2020-08-28 03:00:00 25.9 10 Sudoeste 19 Sudoeste 0 -- -- 36
2020-08-28 02:00:00 27.4 17 Sudoeste 26 Sudoeste 0 -- -- 33
2020-08-28 01:00:00 27.6 16 Sur 23 Sudoeste 0 -- -- 31
2020-08-28 00:00:00 27.7 14 Sudoeste 20 Sudoeste 0 -- -- 31
2020-08-27 23:00:00 27.8 10 Sudoeste 16 Sudoeste 0 -- -- 28
2020-08-27 22:00:00 30 11 Sudoeste 18 Sudoeste 0 -- -- 23
2020-08-27 21:00:00 32.9 17 Sudoeste 32 Oeste 0 -- -- 20
2020-08-27 20:00:00 35.2 20 Oeste 39 Sudoeste 0 -- -- 18
2020-08-27 19:00:00 36.5 26 Oeste 36 Oeste 0 -- -- 17
2020-08-27 18:00:00 38 21 Sudoeste 37 Oeste 0 -- -- 19
2020-08-27 17:00:00 38 26 Oeste 35 Sudoeste 0 -- -- 20
2020-08-27 16:00:00 38 18 Oeste 33 Sudoeste 0 -- -- 19
2020-08-27 15:00:00 38 21 Sur 31 Sudoeste 0 -- -- 20
2020-08-27 14:00:00 36.7 14 Sudoeste 26 Sudoeste 0 -- -- 22
2020-08-27 13:00:00 35.9 11 Sudoeste 23 Sudoeste 0 -- -- 25
2020-08-27 12:00:00 33.9 8 Nordeste 12 Nordeste 0 -- -- 28
2020-08-27 11:00:00 30.7 5 Norte 8 Norte 0 -- -- 34
2020-08-27 10:00:00 25.5 0 Calma 6 Sudoeste 0 -- -- 43
2020-08-27 09:00:00 21.8 4 Sudoeste 8 Sudoeste 0 -- -- 51
2020-08-27 08:00:00 20.7 6 Sudoeste 13 Sudoeste 0 -- -- 53
2020-08-27 07:00:00 21.2 13 Sudoeste 14 Sudoeste 0 -- -- 52
2020-08-27 06:00:00 21.2 13 Sudoeste 15 Sudoeste 0 -- -- 53
2020-08-27 05:00:00 22.8 11 Sudoeste 14 Sudoeste 0 -- -- 50
2020-08-27 04:00:00 24.9 9 Sudoeste 12 Sudoeste 0 -- -- 42
2020-08-27 03:00:00 27.2 9 Sudoeste 12 Sudoeste 0 -- -- 39
2020-08-27 02:00:00 28.3 6 Sudoeste 18 Sudoeste 0 -- -- 38
2020-08-27 01:00:00 29.1 13 Sudoeste 21 Sudoeste 0 -- -- 36
2020-08-27 00:00:00 29.7 15 Sudoeste 22 Sudoeste 0 -- -- 34
2020-08-26 23:00:00 29.5 12 Sur 15 Sur 0 -- -- 31
2020-08-26 22:00:00 30.6 10 Sur 12 Sudoeste 0 -- -- 28
2020-08-26 21:00:00 32.9 11 Sur 20 Oeste 0 -- -- 25
2020-08-26 20:00:00 35.6 12 Oeste 22 Sudoeste 0 -- -- 21
2020-08-26 19:00:00 36.8 15 Sudoeste 22 Sudoeste 0 -- -- 19
2020-08-26 18:00:00 37.7 9 Noroeste 21 Nordeste 0 -- -- 21
2020-08-26 17:00:00 37.4 14 Norte 30 Norte 0 -- -- 25
2020-08-26 16:00:00 36.9 15 Norte 32 Norte 0 -- -- 28
2020-08-26 15:00:00 36.4 15 Norte 26 Norte 0 -- -- 29
2020-08-26 14:00:00 35.6 14 Norte 26 Norte 0 -- -- 28
2020-08-26 13:00:00 33.9 5 Oeste 17 Norte 0 -- -- 28
2020-08-26 12:00:00 33.1 10 Norte 18 Norte 0 -- -- 33
2020-08-26 11:00:00 30.9 5 Nordeste 8 Nordeste 0 -- -- 41
2020-08-26 10:00:00 25.2 4 Sudoeste 12 Sudoeste 0 -- -- 52
2020-08-26 09:00:00 20.8 12 Sudoeste 16 Sudoeste 0 -- -- 64
2020-08-26 08:00:00 19.5 11 Sudoeste 14 Sudoeste 0 -- -- 67
2020-08-26 07:00:00 20.5 7 Sudoeste 9 Sudoeste 0 -- -- 62
2020-08-26 06:00:00 21.6 8 Sudoeste 9 Sudoeste 0 -- -- 57
2020-08-26 05:00:00 23.1 9 Sudoeste 11 Sudoeste 0 -- -- 53
2020-08-26 04:00:00 25.3 12 Sudoeste 15 Sur 0 -- -- 46
2020-08-26 03:00:00 26.3 12 Sur 19 Sur 0 -- -- 45
2020-08-26 02:00:00 25.9 11 Sur 15 Sudoeste 0 -- -- 47
2020-08-26 01:00:00 25.8 15 Sudoeste 16 Sur 0 -- -- 46
2020-08-26 00:00:00 27.4 13 Sudoeste 14 Sur 0 -- -- 41
2020-08-25 23:00:00 28.7 12 Sur 15 Sur 0 -- -- 39
2020-08-25 22:00:00 30.8 5 Sur 11 Sur 0 -- -- 31
2020-08-25 21:00:00 33.1 3 Sur 23 Oeste 0 -- -- 27
2020-08-25 20:00:00 35.8 18 Oeste 26 Sudoeste 0 -- -- 23
2020-08-25 19:00:00 36.8 9 Oeste 26 Sudoeste 0 -- -- 25
2020-08-25 18:00:00 37.1 12 Oeste 26 Oeste 0 -- -- 23
2020-08-25 17:00:00 36.8 10 Sudoeste 24 Sudoeste 0 -- -- 23
2020-08-25 16:00:00 36.5 9 Sur 19 Oeste 0 -- -- 23
2020-08-25 15:00:00 35.8 10 Noroeste 19 Norte 0 -- -- 34
2020-08-25 14:00:00 33.5 9 Oeste 26 Oeste 0 -- -- 36
2020-08-25 13:00:00 32.6 10 Nordeste 20 Nordeste 0 -- -- 40
2020-08-25 12:00:00 30.5 13 Nordeste 20 Nordeste 0 -- -- 45
2020-08-25 11:00:00 28.1 9 Norte 15 Norte 0 -- -- 50
2020-08-25 10:00:00 26.2 4 Nordeste 7 Nordeste 0 -- -- 55
2020-08-25 09:00:00 22.5 0 Calma 11 Sudoeste 0 -- -- 68
2020-08-25 08:00:00 19.3 5 Oeste 13 Sudoeste 0 -- -- 77
2020-08-25 07:00:00 19.9 12 Sudoeste 13 Sudoeste 0 -- -- 77
2020-08-25 06:00:00 21.2 10 Sudoeste 13 Sudoeste 0 -- -- 71
2020-08-25 05:00:00 22.2 10 Sudoeste 17 Sudoeste 0 -- -- 70
2020-08-25 04:00:00 23.5 8 Sudoeste 23 Sur 0 -- -- 65
2020-08-25 03:00:00 24.3 18 Sudoeste 28 Sudoeste 0 -- -- 63
2020-08-25 02:00:00 25 18 Sudoeste 28 Sudoeste 0 -- -- 59
2020-08-25 01:00:00 25.4 18 Sudoeste 25 Sudoeste 0 -- -- 52
2020-08-25 00:00:00 26.7 15 Sur 19 Sur 0 -- -- 50
2020-08-24 23:00:00 27.9 16 Sur 20 Sur 0 -- -- 43
2020-08-24 22:00:00 29 9 Sur 14 Sudoeste 0 -- -- 39
2020-08-24 21:00:00 30.9 11 Sudoeste 23 Sudoeste 0 -- -- 39
2020-08-24 20:00:00 33.4 18 Sudoeste 26 Sudoeste 0 -- -- 36
2020-08-24 19:00:00 34.7 14 Oeste 28 Sudoeste 0 -- -- 33
2020-08-24 18:00:00 35.3 15 Sudoeste 25 Norte 0 -- -- 31
2020-08-24 17:00:00 34.8 18 Nordeste 30 Norte 0 -- -- 30
2020-08-24 16:00:00 35 8 Noroeste 28 Norte 0 -- -- 32
2020-08-24 15:00:00 34.3 13 Nordeste 27 Nordeste 0 -- -- 28
2020-08-24 14:00:00 34 5 Este 23 Sudoeste 0 -- -- 27
2020-08-24 13:00:00 32.2 5 Nordeste 15 Nordeste 0 -- -- 30
2020-08-24 12:00:00 30.8 9 Nordeste 15 Norte 0 -- -- 31
2020-08-24 11:00:00 27.8 6 Norte 9 Norte 0 -- -- 35
2020-08-24 10:00:00 23.7 4 Sudoeste 6 Sur 0 -- -- 50
2020-08-24 09:00:00 20.8 0 Calma 12 Sudoeste 0 -- -- 52
2020-08-24 08:00:00 17.6 10 Sudoeste 15 Sudoeste 0 -- -- 60
2020-08-24 07:00:00 18.2 7 Sudoeste 11 Sudoeste 0 -- -- 59
2020-08-24 06:00:00 19.6 10 Sudoeste 13 Sudoeste 0 -- -- 56
2020-08-24 05:00:00 20.3 10 Sudoeste 12 Sudoeste 0 -- -- 55
2020-08-24 04:00:00 21.7 8 Sudoeste 14 Sudoeste 0 -- -- 54
2020-08-24 03:00:00 23.3 12 Sudoeste 17 Sur 0 -- -- 49
2020-08-24 02:00:00 25.2 12 Sur 22 Sur 0 -- -- 44
2020-08-24 01:00:00 26.3 15 Sudoeste 31 Sur 0 -- -- 36
2020-08-24 00:00:00 26.8 19 Sur 23 Sur 0 -- -- 38
2020-08-23 23:00:00 28.4 14 Sur 21 Sur 0 -- -- 18
2020-08-23 22:00:00 29.5 9 Sudoeste 17 Sur 0 -- -- 18
2020-08-23 21:00:00 31.9 8 Sudoeste 26 Oeste 0 -- -- 17
2020-08-23 20:00:00 34.4 16 Oeste 28 Sudoeste 0 -- -- 18
2020-08-23 19:00:00 35.3 18 Oeste 33 Sudoeste 0 -- -- 21
2020-08-23 18:00:00 36 15 Sudoeste 32 Oeste 0 -- -- 20
2020-08-23 17:00:00 36.2 19 Sudoeste 32 Oeste 0 -- -- 18
2020-08-23 16:00:00 36.1 14 Sudoeste 41 Norte 0 -- -- 19
2020-08-23 15:00:00 35.1 15 Norte 29 Nordeste 0 -- -- 24
2020-08-23 14:00:00 34.7 15 Norte 24 Nordeste 0 -- -- 25
2020-08-23 13:00:00 34.1 14 Nordeste 23 Nordeste 0 -- -- 27
2020-08-23 12:00:00 32.4 8 Nordeste 14 Nordeste 0 -- -- 26
2020-08-23 11:00:00 29.6 6 Norte 9 Noroeste 0 -- -- 33
2020-08-23 10:00:00 26.3 0 Calma 5 Sudoeste 0 -- -- 41
2020-08-23 09:00:00 20.5 5 Sudoeste 13 Sudoeste 0 -- -- 53
2020-08-23 08:00:00 17.9 12 Sudoeste 13 Sudoeste 0 -- -- 62
2020-08-23 07:00:00 18.7 12 Sudoeste 13 Sudoeste 0 -- -- 61
2020-08-23 06:00:00 20.2 8 Sudoeste 10 Sudoeste 0 -- -- 56
2020-08-23 05:00:00 21.4 8 Sudoeste 10 Sudoeste 0 -- -- 54
2020-08-23 04:00:00 23.8 5 Sudoeste 10 Sur 0 -- -- 46
2020-08-23 03:00:00 25.1 6 Sur 9 Sur 0 -- -- 46
2020-08-23 02:00:00 25.9 4 Sur 10 Sur 0 -- -- 44
2020-08-23 01:00:00 25.7 10 Sudoeste 18 Sudoeste 0 -- -- 41
2020-08-23 00:00:00 25.6 10 Sudoeste 13 Sur 0 -- -- 43
2020-08-22 23:00:00 27.1 9 Sudoeste 13 Sudoeste 0 -- -- 40
2020-08-22 22:00:00 29.1 7 Sudoeste 17 Sur 0 -- -- 37
2020-08-22 21:00:00 32.2 6 Sudoeste 21 Sudoeste 0 -- -- 31
2020-08-22 20:00:00 34.7 15 Sudoeste 22 Sudoeste 0 -- -- 29
2020-08-22 19:00:00 35.8 12 Sudoeste 23 Norte 0 -- -- 28
2020-08-22 18:00:00 35.1 13 Norte 26 Nordeste 0 -- -- 33
2020-08-22 17:00:00 34.9 12 Noroeste 27 Norte 0 -- -- 35
2020-08-22 16:00:00 34.3 10 Nordeste 23 Nordeste 0 -- -- 36
2020-08-22 15:00:00 33.4 12 Nordeste 27 Norte 0 -- -- 37
2020-08-22 14:00:00 32.3 15 Norte 26 Nordeste 0 -- -- 40
2020-08-22 13:00:00 31.4 12 Nordeste 22 Este 0 -- -- 42
2020-08-22 12:00:00 29.8 15 Nordeste 22 Nordeste 0 -- -- 46
2020-08-22 11:00:00 27.8 14 Nordeste 19 Nordeste 0 -- -- 51
2020-08-22 10:00:00 24.4 0 Calma 8 Sudoeste 0 -- -- 55
2020-08-22 09:00:00 19.4 8 Sudoeste 14 Sudoeste 0 -- -- 68
2020-08-22 08:00:00 17.3 9 Sudoeste 12 Sudoeste 0 -- -- 70
2020-08-22 07:00:00 17.9 8 Sudoeste 9 Sudoeste 0 -- -- 64
2020-08-22 06:00:00 19.4 6 Sudoeste -- -- 0 -- -- 60
2020-08-22 05:00:00 20.8 0 Calma 9 Sur 0 -- -- 51
2020-08-22 04:00:00 21.9 9 Sur 11 Sudoeste 0 -- -- 53
2020-08-22 03:00:00 21.7 6 Sudoeste 13 Sudoeste 0 -- -- 48
2020-08-22 02:00:00 23.3 5 Sur 7 Sur 0 -- -- 43
2020-08-22 01:00:00 23.7 5 Sudoeste 15 Sudoeste 0 -- -- 40
2020-08-22 00:00:00 23.4 10 Sudoeste 13 Sudoeste 0 -- -- 39